Time;durP1;ratioP1;P1;durP2;ratioP2;P2;SDS_P1;SDS_P2;PMS_P1;PMS_P2;Temp;Humidity;BMP_temperature;BMP_pressure;BME280_temperature;BME280_humidity;BME280_pressure;Samples;Min_cycle;Max_cycle;Signal;HPM_P1;HPM_P2
2023/01/04 00:01:46;;;;;;;4.13;2.53;;;6.40;99.90;;;;;;5021847;28;20219;-53
2023/01/04 00:04:12;;;;;;;4.60;2.50;;;6.40;99.90;;;;;;5029659;28;20196;-52
2023/01/04 00:06:40;;;;;;;4.67;2.10;;;6.50;99.90;;;;;;5023506;28;20946;-49
2023/01/04 00:09:07;;;;;;;2.87;2.10;;;6.50;99.90;;;;;;5023833;28;20211;-53
2023/01/04 00:11:34;;;;;;;3.30;2.00;;;6.50;99.90;;;;;;5022395;28;20203;-46
2023/01/04 00:14:01;;;;;;;2.40;1.77;;;6.50;99.90;;;;;;5022831;28;20235;-53
2023/01/04 00:16:29;;;;;;;5.63;2.20;;;6.60;99.90;;;;;;5012954;28;20291;-48
2023/01/04 00:18:57;;;;;;;1.97;1.77;;;6.60;99.90;;;;;;5027290;28;20203;-49
2023/01/04 00:21:25;;;;;;;6.07;1.60;;;6.60;99.90;;;;;;5020866;28;20202;-46
2023/01/04 00:23:55;;;;;;;4.53;1.43;;;6.60;99.90;;;;;;5024488;28;20204;-45
2023/01/04 00:26:24;;;;;;;2.97;1.47;;;6.70;99.90;;;;;;5020207;28;20237;-48
2023/01/04 00:28:54;;;;;;;1.97;1.67;;;6.60;99.90;;;;;;5027270;28;20207;-50
2023/01/04 00:31:22;;;;;;;4.10;1.70;;;6.70;99.90;;;;;;5012247;28;20227;-48
2023/01/04 00:33:50;;;;;;;6.20;1.90;;;6.70;99.90;;;;;;5034853;28;20203;-45
2023/01/04 00:36:17;;;;;;;3.03;1.60;;;6.70;99.90;;;;;;5021156;28;20220;-48
2023/01/04 00:38:43;;;;;;;7.27;1.87;;;6.80;99.90;;;;;;5023894;28;20215;-50
2023/01/04 00:41:12;;;;;;;1.97;1.50;;;6.80;99.90;;;;;;5022450;28;20215;-53
2023/01/04 00:43:40;;;;;;;4.17;1.50;;;6.80;99.90;;;;;;5021924;28;20210;-49
2023/01/04 00:46:10;;;;;;;6.23;1.77;;;6.80;99.90;;;;;;5019379;28;20220;-53
2023/01/04 00:48:38;;;;;;;3.23;2.03;;;6.80;99.90;;;;;;5028749;28;20202;-47
2023/01/04 00:51:05;;;;;;;4.53;1.60;;;6.80;99.90;;;;;;5024297;28;20259;-53
2023/01/04 00:53:32;;;;;;;2.33;1.50;;;6.80;99.90;;;;;;5021186;28;20188;-51
2023/01/04 00:56:00;;;;;;;4.57;1.37;;;6.80;99.90;;;;;;5024110;28;20245;-48
2023/01/04 00:58:29;;;;;;;1.30;1.20;;;6.80;99.90;;;;;;5020246;28;20192;-52
2023/01/04 01:00:55;;;;;;;4.37;1.40;;;6.90;99.90;;;;;;5026511;28;20629;-50
2023/01/04 01:03:22;;;;;;;1.87;1.10;;;6.90;99.90;;;;;;5008659;28;20943;-48
2023/01/04 01:05:49;;;;;;;3.07;1.43;;;6.90;99.90;;;;;;5033131;28;20242;-45
2023/01/04 01:08:25;;;;;;;3.97;1.30;;;6.90;99.90;;;;;;5020753;28;20212;-50
2023/01/04 01:10:53;;;;;;;2.83;1.57;;;7.00;99.90;;;;;;5024217;28;20217;-45
2023/01/04 01:13:20;;;;;;;5.20;1.30;;;7.00;99.90;;;;;;5020055;28;20192;-51
2023/01/04 01:15:48;;;;;;;6.17;1.40;;;7.00;99.90;;;;;;5024032;28;20223;-46
2023/01/04 01:18:16;;;;;;;2.37;1.30;;;7.00;99.90;;;;;;5017845;28;20291;-50
2023/01/04 01:20:44;;;;;;;4.67;1.20;;;7.10;99.90;;;;;;5029275;28;20210;-44
2023/01/04 01:23:13;;;;;;;2.30;1.20;;;7.10;99.90;;;;;;5020659;28;20254;-52
2023/01/04 01:25:40;;;;;;;2.50;1.20;;;7.10;99.90;;;;;;5026436;28;20993;-49
2023/01/04 01:28:07;;;;;;;3.60;1.10;;;7.10;99.90;;;;;;5025407;28;20654;-52
2023/01/04 01:30:38;;;;;;;3.90;1.10;;;7.20;99.90;;;;;;5023701;28;20204;-47
2023/01/04 01:33:07;;;;;;;1.27;1.00;;;7.20;99.90;;;;;;5022537;28;20203;-51
2023/01/04 01:35:34;;;;;;;1.87;0.97;;;7.20;99.90;;;;;;5022243;28;20207;-47
2023/01/04 01:38:00;;;;;;;1.57;0.87;;;7.30;99.90;;;;;;5035677;28;20992;-48
2023/01/04 01:40:28;;;;;;;3.50;1.20;;;7.30;99.90;;;;;;5024094;28;20210;-50
2023/01/04 01:42:55;;;;;;;3.00;1.00;;;7.30;99.90;;;;;;5027247;28;20199;-50
2023/01/04 01:45:28;;;;;;;1.80;1.00;;;7.30;99.90;;;;;;5020819;28;20791;-45
2023/01/04 01:48:05;;;;;;;3.60;1.10;;;7.40;99.90;;;;;;5030420;28;20211;-49
2023/01/04 01:50:39;;;;;;;3.10;0.90;;;7.50;99.90;;;;;;5014589;28;20266;-52
2023/01/04 01:53:08;;;;;;;2.70;1.20;;;7.50;99.90;;;;;;5029928;28;20199;-51
2023/01/04 01:55:38;;;;;;;4.43;1.10;;;7.50;99.90;;;;;;5037849;28;20187;-45
2023/01/04 01:58:08;;;;;;;2.07;0.80;;;7.60;99.90;;;;;;5045842;28;20203;-51
2023/01/04 02:00:36;;;;;;;2.07;1.10;;;7.60;99.90;;;;;;5025109;28;20277;-51
2023/01/04 02:03:13;;;;;;;4.00;1.23;;;7.60;99.90;;;;;;5023057;28;20219;-51
2023/01/04 02:05:43;;;;;;;3.77;1.00;;;7.70;99.90;;;;;;5032975;28;20785;-47
2023/01/04 02:08:12;;;;;;;2.33;0.90;;;7.70;99.90;;;;;;5030842;28;20207;-48
2023/01/04 02:10:39;;;;;;;1.80;1.07;;;7.70;99.90;;;;;;5040524;28;20203;-48
2023/01/04 02:13:11;;;;;;;4.63;0.90;;;7.80;99.90;;;;;;5045335;28;20596;-52
2023/01/04 02:15:50;;;;;;;2.43;1.13;;;7.80;99.90;;;;;;5044845;28;20255;-51
2023/01/04 02:18:24;;;;;;;3.13;0.87;;;7.80;99.90;;;;;;5036852;28;20214;-54
2023/01/04 02:20:58;;;;;;;3.47;1.17;;;7.80;99.90;;;;;;5020510;28;20204;-52
2023/01/04 02:23:53;;;;;;;3.17;1.10;;;7.90;99.90;;;;;;5031997;28;20824;-50
2023/01/04 02:27:01;;;;;;;5.13;0.67;;;7.90;99.90;;;;;;5022931;28;20230;-53
2023/01/04 02:30:09;;;;;;;3.17;0.77;;;7.90;99.90;;;;;;5007928;28;20207;-51
2023/01/04 02:32:47;;;;;;;4.93;1.00;;;7.90;99.90;;;;;;4990018;28;23161;-50
2023/01/04 02:35:21;;;;;;;4.37;0.93;;;7.90;99.90;;;;;;4981971;28;20277;-54
2023/01/04 02:37:52;;;;;;;4.07;1.00;;;7.90;99.90;;;;;;4996564;28;20930;-51
2023/01/04 02:40:28;;;;;;;5.10;0.70;;;7.90;99.90;;;;;;5033846;28;20208;-51
2023/01/04 02:45:53;;;;;;;0.83;0.70;;;7.90;99.90;;;;;;5040806;28;20631;-51
2023/01/04 02:51:28;;;;;;;1.93;0.80;;;8.00;99.90;;;;;;5031763;28;20214;-52
2023/01/04 02:53:58;;;;;;;2.40;0.70;;;8.00;99.90;;;;;;5022920;28;20229;-50
2023/01/04 02:56:35;;;;;;;3.10;1.10;;;8.00;99.90;;;;;;5025704;28;20235;-51
2023/01/04 02:59:23;;;;;;;1.67;0.80;;;8.00;99.90;;;;;;5025973;28;20210;-55
2023/01/04 03:07:46;;;;;;;2.43;1.10;;;8.00;99.90;;;;;;5015241;28;20227;-51
2023/01/04 03:10:18;;;;;;;1.63;0.87;;;8.00;99.90;;;;;;5026156;28;20192;-51
2023/01/04 03:12:49;;;;;;;0.83;0.80;;;8.00;99.90;;;;;;5025529;28;20207;-50
2023/01/04 03:15:20;;;;;;;3.10;1.23;;;7.90;99.90;;;;;;5023139;28;20196;-52
2023/01/04 03:17:51;;;;;;;3.27;0.90;;;7.90;99.90;;;;;;5029291;28;20203;-52
2023/01/04 03:20:22;;;;;;;1.33;0.90;;;7.90;99.90;;;;;;5028093;28;20211;-54
2023/01/04 03:37:12;;;;;;;3.23;1.17;;;7.80;99.90;;;;;;5036569;28;20218;-53
2023/01/04 03:48:33;;;;;;;2.70;1.37;;;7.60;99.90;;;;;;5041437;28;20187;-53
2023/01/04 03:51:13;;;;;;;3.30;1.00;;;7.60;99.90;;;;;;5039866;28;20242;-49
2023/01/04 03:53:51;;;;;;;4.03;0.93;;;7.50;99.90;;;;;;5021079;28;20203;-51
2023/01/04 03:56:22;;;;;;;3.17;1.07;;;7.50;99.90;;;;;;5020310;28;20214;-49
2023/01/04 03:58:49;;;;;;;2.10;1.00;;;7.50;99.90;;;;;;5030532;28;20203;-47
2023/01/04 04:01:18;;;;;;;3.90;1.27;;;7.40;99.90;;;;;;5034934;28;20238;-47
2023/01/04 04:09:16;;;;;;;1.13;0.83;;;7.30;99.90;;;;;;5024407;28;20203;-45
2023/01/04 04:11:42;;;;;;;2.87;1.17;;;7.20;99.90;;;;;;5015819;28;20215;-49
2023/01/04 04:14:09;;;;;;;3.13;1.20;;;7.20;99.90;;;;;;5029539;28;20196;-49
2023/01/04 04:16:36;;;;;;;3.43;1.37;;;7.20;99.90;;;;;;5020736;28;20563;-52
2023/01/04 04:19:03;;;;;;;1.60;1.33;;;7.20;99.90;;;;;;5027485;28;20208;-54
2023/01/04 04:21:30;;;;;;;2.00;0.80;;;7.10;99.90;;;;;;5021753;28;20235;-53
2023/01/04 04:23:57;;;;;;;6.13;1.23;;;7.10;99.90;;;;;;5035172;28;20269;-47
2023/01/04 04:26:25;;;;;;;5.63;1.23;;;7.10;99.90;;;;;;5019515;28;20219;-47
2023/01/04 04:28:53;;;;;;;2.83;1.10;;;7.00;99.90;;;;;;5036734;28;20282;-50
2023/01/04 04:31:20;;;;;;;2.60;1.40;;;7.00;99.90;;;;;;5024542;28;20196;-48
2023/01/04 04:33:47;;;;;;;2.30;1.30;;;7.00;99.90;;;;;;5018682;28;20206;-51
2023/01/04 04:36:14;;;;;;;1.40;1.20;;;7.00;99.90;;;;;;5024222;28;20220;-49
2023/01/04 04:38:40;;;;;;;3.63;1.50;;;7.00;99.90;;;;;;5018069;28;20250;-52
2023/01/04 04:43:55;;;;;;;4.97;1.50;;;6.90;99.90;;;;;;5018762;28;20237;-47
2023/01/04 04:46:22;;;;;;;3.13;1.20;;;6.90;99.90;;;;;;5040398;28;20212;-49
2023/01/04 04:48:49;;;;;;;2.67;1.40;;;6.90;99.90;;;;;;5031654;28;20195;-50
2023/01/04 04:51:17;;;;;;;2.17;1.33;;;6.90;99.90;;;;;;5024395;28;20694;-47
2023/01/04 04:53:44;;;;;;;3.33;1.33;;;6.90;99.90;;;;;;5026238;28;20264;-46
2023/01/04 04:56:11;;;;;;;3.47;1.50;;;6.90;99.90;;;;;;5033086;28;20230;-48
2023/01/04 04:58:38;;;;;;;3.20;2.03;;;6.90;99.90;;;;;;5015711;28;20215;-53
2023/01/04 05:01:07;;;;;;;2.53;1.17;;;6.90;99.90;;;;;;5036337;28;20199;-45
2023/01/04 05:03:34;;;;;;;2.20;1.40;;;6.90;99.90;;;;;;5024777;28;20211;-53
2023/01/04 05:06:01;;;;;;;2.03;1.37;;;6.80;99.90;;;;;;5022644;28;20840;-47
2023/01/04 05:08:28;;;;;;;9.67;3.10;;;6.80;99.90;;;;;;5022446;28;20203;-50
2023/01/04 05:10:54;;;;;;;4.73;1.80;;;6.90;99.90;;;;;;5021526;28;20188;-52
2023/01/04 05:13:20;;;;;;;1.83;1.40;;;6.90;99.90;;;;;;5021747;28;20215;-49
2023/01/04 05:15:50;;;;;;;4.10;1.40;;;6.90;99.90;;;;;;5029336;28;20203;-46
2023/01/04 05:18:20;;;;;;;3.53;2.70;;;6.90;99.90;;;;;;5029987;28;20203;-45
2023/01/04 05:20:47;;;;;;;9.10;2.43;;;6.90;99.90;;;;;;5023658;28;20207;-47
2023/01/04 05:23:16;;;;;;;3.30;1.83;;;6.90;99.90;;;;;;5023537;28;20196;-46
2023/01/04 05:25:43;;;;;;;3.97;1.90;;;6.90;99.90;;;;;;5026898;28;20239;-51
2023/01/04 05:28:11;;;;;;;5.87;1.80;;;6.90;99.90;;;;;;5020638;28;20610;-52
2023/01/04 05:30:52;;;;;;;2.53;1.60;;;7.00;99.90;;;;;;5025779;28;20199;-51
2023/01/04 05:33:25;;;;;;;1.70;1.33;;;7.00;99.90;;;;;;5036175;28;20210;-53
2023/01/04 05:35:56;;;;;;;4.17;1.90;;;7.00;99.90;;;;;;5023940;28;20207;-50
2023/01/04 05:38:24;;;;;;;2.87;1.53;;;7.00;99.90;;;;;;5023578;28;20216;-54
2023/01/04 05:40:51;;;;;;;4.17;1.30;;;7.00;99.90;;;;;;5021077;28;20892;-50
2023/01/04 05:43:19;;;;;;;2.50;1.20;;;7.10;99.90;;;;;;5015957;28;20230;-50
2023/01/04 05:45:48;;;;;;;4.33;1.43;;;7.10;99.90;;;;;;5030389;28;20211;-50
2023/01/04 05:48:16;;;;;;;3.33;1.40;;;7.20;99.90;;;;;;5027388;28;20254;-48
2023/01/04 05:50:45;;;;;;;4.33;2.30;;;7.20;99.90;;;;;;5017115;28;20200;-49
2023/01/04 05:53:13;;;;;;;2.23;1.20;;;7.20;99.90;;;;;;5042561;28;20235;-45
2023/01/04 05:55:41;;;;;;;2.37;1.00;;;7.20;99.90;;;;;;5029981;28;20704;-51
2023/01/04 05:58:07;;;;;;;3.90;1.27;;;7.30;99.90;;;;;;5029921;28;20204;-49
2023/01/04 06:00:34;;;;;;;3.60;1.03;;;7.30;99.90;;;;;;5017460;28;20705;-52
2023/01/04 06:03:01;;;;;;;1.43;1.07;;;7.30;99.90;;;;;;5023053;28;20196;-47
2023/01/04 06:05:28;;;;;;;7.80;2.13;;;7.30;99.90;;;;;;5022586;28;20203;-54
2023/01/04 06:07:56;;;;;;;8.87;3.20;;;7.30;99.90;;;;;;5023455;28;20208;-49
2023/01/04 06:10:44;;;;;;;2.03;1.40;;;7.40;99.90;;;;;;5032132;28;20197;-49
2023/01/04 06:13:12;;;;;;;2.57;1.37;;;7.40;99.90;;;;;;5031126;28;20753;-48
2023/01/04 06:15:38;;;;;;;1.80;1.67;;;7.50;99.90;;;;;;5016640;28;20200;-52
2023/01/04 06:18:05;;;;;;;5.40;2.40;;;7.50;99.90;;;;;;5036540;28;20202;-48
2023/01/04 06:20:32;;;;;;;3.77;1.73;;;7.50;99.90;;;;;;5025066;28;20568;-51
2023/01/04 06:23:00;;;;;;;4.57;2.47;;;7.50;99.90;;;;;;5023879;28;20206;-48
2023/01/04 06:25:27;;;;;;;1.60;1.47;;;7.50;99.90;;;;;;5032937;28;20621;-54
2023/01/04 06:27:54;;;;;;;1.57;0.93;;;7.50;99.90;;;;;;5023647;28;20306;-50
2023/01/04 06:30:21;;;;;;;2.93;1.43;;;7.60;99.90;;;;;;5012994;28;20570;-47
2023/01/04 06:32:48;;;;;;;3.53;1.20;;;7.60;99.90;;;;;;5027044;28;20222;-48
2023/01/04 06:35:15;;;;;;;1.50;0.93;;;7.60;99.90;;;;;;5027778;28;20692;-51
2023/01/04 06:37:42;;;;;;;2.23;1.30;;;7.70;99.90;;;;;;5032046;28;20239;-47
2023/01/04 06:40:11;;;;;;;1.67;1.20;;;7.70;99.90;;;;;;5041287;28;20195;-52
2023/01/04 06:42:46;;;;;;;1.10;0.97;;;7.70;99.90;;;;;;5022846;28;20192;-47
2023/01/04 06:45:15;;;;;;;1.10;0.90;;;7.70;99.90;;;;;;5013863;28;20200;-53
2023/01/04 06:47:42;;;;;;;1.50;1.40;;;7.70;99.90;;;;;;5025715;28;20219;-46
2023/01/04 06:50:09;;;;;;;3.57;2.47;;;7.80;99.90;;;;;;5033670;28;20206;-51
2023/01/04 06:52:36;;;;;;;1.60;1.03;;;7.80;99.90;;;;;;5032178;28;20983;-51
2023/01/04 06:55:03;;;;;;;1.80;1.10;;;7.80;99.90;;;;;;5033970;28;20203;-51
2023/01/04 06:57:31;;;;;;;2.57;1.00;;;7.90;99.90;;;;;;5022985;28;20262;-48
2023/01/04 06:59:58;;;;;;;1.60;1.40;;;7.90;99.90;;;;;;5033838;28;20207;-52
2023/01/04 07:02:25;;;;;;;1.70;1.30;;;7.90;99.90;;;;;;5023741;28;20204;-48
2023/01/04 07:04:52;;;;;;;4.93;2.30;;;7.90;99.90;;;;;;5032537;28;20257;-53
2023/01/04 07:07:19;;;;;;;4.60;2.70;;;8.00;99.90;;;;;;5034221;28;20212;-51
2023/01/04 07:09:46;;;;;;;10.20;3.53;;;8.00;99.90;;;;;;5035528;28;20199;-51
2023/01/04 07:12:12;;;;;;;2.43;1.80;;;8.00;99.90;;;;;;5030112;28;20202;-52
2023/01/04 07:14:40;;;;;;;5.60;2.93;;;8.00;99.90;;;;;;5037367;28;20619;-50
2023/01/04 07:17:07;;;;;;;2.67;1.63;;;8.10;99.90;;;;;;5024637;28;20294;-55
2023/01/04 07:19:34;;;;;;;2.00;1.27;;;8.10;99.90;;;;;;5034379;28;20243;-49
2023/01/04 07:22:01;;;;;;;8.13;3.57;;;8.10;99.90;;;;;;5024654;28;20277;-50
2023/01/04 07:24:28;;;;;;;1.70;1.60;;;8.20;99.90;;;;;;5029227;28;20211;-50
2023/01/04 07:26:55;;;;;;;2.93;2.00;;;8.20;99.90;;;;;;5019059;28;20228;-49
2023/01/04 07:29:21;;;;;;;4.97;1.60;;;8.20;99.90;;;;;;5029484;28;20211;-49
2023/01/04 07:31:51;;;;;;;7.33;2.00;;;8.20;99.90;;;;;;5021146;28;20231;-52
2023/01/04 07:34:22;;;;;;;2.17;1.80;;;8.20;99.90;;;;;;5040010;28;20258;-52
2023/01/04 07:36:50;;;;;;;4.87;2.50;;;8.30;99.90;;;;;;5034123;28;20212;-54
2023/01/04 07:39:18;;;;;;;4.73;2.70;;;8.30;99.90;;;;;;5032069;28;20207;-46
2023/01/04 07:41:46;;;;;;;4.50;2.20;;;8.40;99.90;;;;;;5025593;28;20211;-55
2023/01/04 07:44:17;;;;;;;6.63;2.50;;;8.40;99.90;;;;;;5023425;28;20273;-53
2023/01/04 07:46:45;;;;;;;4.15;2.92;;;8.40;99.90;;;;;;5020913;28;20994;-52
2023/01/04 07:49:15;;;;;;;6.47;3.23;;;8.50;99.90;;;;;;5031602;28;20207;-48
2023/01/04 07:51:42;;;;;;;6.20;3.10;;;8.60;99.90;;;;;;5034954;28;20196;-51
2023/01/04 07:54:09;;;;;;;7.20;3.10;;;8.60;99.90;;;;;;5030496;28;20207;-52
2023/01/04 07:56:36;;;;;;;3.63;3.33;;;8.60;99.90;;;;;;5038581;28;20226;-53
2023/01/04 07:59:06;;;;;;;5.83;3.20;;;8.60;99.90;;;;;;5026927;28;20199;-51
2023/01/04 08:01:37;;;;;;;4.13;2.63;;;8.70;99.90;;;;;;5022472;28;20203;-49
2023/01/04 08:04:04;;;;;;;5.30;2.97;;;8.70;99.90;;;;;;5017026;28;20687;-50
2023/01/04 08:06:33;;;;;;;2.80;2.60;;;8.70;99.90;;;;;;5038255;28;20239;-51
2023/01/04 08:09:00;;;;;;;5.90;3.50;;;8.70;99.90;;;;;;5032696;28;20204;-51
2023/01/04 08:11:27;;;;;;;13.60;4.87;;;8.80;99.90;;;;;;5029330;28;20203;-52
2023/01/04 08:13:54;;;;;;;8.03;5.10;;;8.80;99.90;;;;;;5030833;28;20207;-50
2023/01/04 08:16:23;;;;;;;8.53;3.80;;;8.80;99.90;;;;;;5030910;28;20223;-51
2023/01/04 08:18:54;;;;;;;11.93;6.50;;;8.90;99.90;;;;;;5019572;28;20776;-50
2023/01/04 08:21:21;;;;;;;16.67;6.53;;;8.90;99.90;;;;;;5034818;28;20192;-53
2023/01/04 08:23:49;;;;;;;6.43;4.57;;;8.90;99.90;;;;;;5032711;28;20191;-53
2023/01/04 08:26:16;;;;;;;8.67;5.10;;;9.00;99.90;;;;;;5032228;28;20219;-53
2023/01/04 08:28:44;;;;;;;10.70;4.97;;;9.00;99.90;;;;;;5030774;28;20368;-45
2023/01/04 08:31:15;;;;;;;4.53;3.97;;;9.00;99.90;;;;;;5040198;28;20684;-50
2023/01/04 08:33:45;;;;;;;7.10;5.00;;;9.10;99.90;;;;;;5026771;28;20199;-53
2023/01/04 08:36:17;;;;;;;6.30;4.70;;;9.10;99.90;;;;;;5019057;28;20239;-49
2023/01/04 08:38:44;;;;;;;5.57;3.80;;;9.10;99.90;;;;;;5031168;28;20210;-51
2023/01/04 08:41:13;;;;;;;4.37;3.97;;;9.20;99.90;;;;;;5025452;28;20208;-49
2023/01/04 08:43:39;;;;;;;8.30;4.60;;;9.20;99.90;;;;;;5023545;28;20188;-49
2023/01/04 08:46:07;;;;;;;4.53;3.97;;;9.20;99.90;;;;;;5026313;28;20219;-54
2023/01/04 08:48:35;;;;;;;4.37;3.87;;;9.20;99.90;;;;;;5014378;28;20220;-52
2023/01/04 08:51:05;;;;;;;4.77;4.27;;;9.30;99.90;;;;;;5023962;28;20208;-51
2023/01/04 08:53:32;;;;;;;3.70;3.40;;;9.30;99.90;;;;;;5021491;28;20792;-53
2023/01/04 08:55:59;;;;;;;8.80;5.20;;;9.30;99.90;;;;;;5032740;28;20713;-49
2023/01/04 08:58:29;;;;;;;4.40;3.70;;;9.30;99.90;;;;;;5020948;28;20200;-52
2023/01/04 09:01:00;;;;;;;4.73;3.47;;;9.40;99.90;;;;;;5032171;28;20238;-50
2023/01/04 09:03:27;;;;;;;7.47;4.03;;;9.40;99.90;;;;;;5024565;28;20212;-55
2023/01/04 09:05:54;;;;;;;3.40;3.10;;;9.40;99.90;;;;;;5015540;28;20226;-52
2023/01/04 09:08:22;;;;;;;7.07;4.03;;;9.50;99.90;;;;;;5028967;28;20222;-54
2023/01/04 09:10:49;;;;;;;5.07;3.83;;;9.50;99.90;;;;;;5028034;28;20595;-55
2023/01/04 09:13:16;;;;;;;9.93;3.80;;;9.50;99.90;;;;;;5026347;28;20223;-45
2023/01/04 09:15:44;;;;;;;3.77;3.47;;;9.60;99.90;;;;;;5022112;28;20232;-54
2023/01/04 09:18:11;;;;;;;3.17;2.97;;;9.60;99.90;;;;;;5026012;28;20326;-46
2023/01/04 09:20:38;;;;;;;2.83;2.13;;;9.60;99.90;;;;;;5023729;28;20212;-51
2023/01/04 09:23:05;;;;;;;2.30;2.17;;;9.70;99.90;;;;;;5023180;28;20256;-48
2023/01/04 09:25:32;;;;;;;2.57;2.20;;;9.70;99.90;;;;;;5025880;28;20200;-50
2023/01/04 09:27:58;;;;;;;2.63;2.43;;;9.70;99.90;;;;;;5023319;28;20227;-44
2023/01/04 09:30:25;;;;;;;2.70;2.50;;;9.70;99.90;;;;;;5025927;28;20196;-47
2023/01/04 09:32:53;;;;;;;4.90;3.53;;;9.80;99.90;;;;;;5034071;28;20203;-52
2023/01/04 09:35:20;;;;;;;3.20;2.40;;;9.80;99.90;;;;;;5023941;28;20200;-51
2023/01/04 09:37:47;;;;;;;5.00;2.90;;;9.80;99.90;;;;;;5013821;28;20203;-54
2023/01/04 09:40:20;;;;;;;3.07;2.40;;;9.90;99.90;;;;;;5034754;28;20209;-52
2023/01/04 09:42:49;;;;;;;3.10;2.23;;;9.90;99.90;;;;;;5025316;28;20207;-50
2023/01/04 09:45:19;;;;;;;4.23;2.43;;;9.90;99.90;;;;;;5028445;28;20203;-52
2023/01/04 09:47:51;;;;;;;2.47;1.87;;;10.00;99.90;;;;;;5023057;28;20239;-51
2023/01/04 09:50:23;;;;;;;5.43;3.33;;;10.00;99.90;;;;;;5036980;28;20309;-50
2023/01/04 09:53:00;;;;;;;3.60;1.33;;;10.00;99.90;;;;;;5017374;28;20211;-53
2023/01/04 09:55:31;;;;;;;2.70;2.17;;;10.10;99.90;;;;;;5036695;28;20196;-54
2023/01/04 09:58:03;;;;;;;9.13;3.23;;;10.10;99.90;;;;;;5038572;28;20191;-50
2023/01/04 10:00:34;;;;;;;5.90;1.70;;;10.10;99.90;;;;;;5043298;28;20286;-53
2023/01/04 10:03:06;;;;;;;8.93;3.30;;;10.20;99.90;;;;;;5038603;28;20670;-44
2023/01/04 10:05:34;;;;;;;3.60;2.27;;;10.20;99.90;;;;;;5025410;28;20214;-49
2023/01/04 10:08:01;;;;;;;4.63;2.00;;;10.20;99.90;;;;;;5027912;28;20211;-49
2023/01/04 10:10:47;;;;;;;1.47;1.10;;;10.20;99.90;;;;;;5029529;28;20203;-50
2023/01/04 10:13:26;;;;;;;2.63;1.80;;;10.20;99.90;;;;;;5036029;28;20956;-46
2023/01/04 10:16:03;;;;;;;4.27;1.90;;;10.30;99.90;;;;;;5033450;28;21366;-48
2023/01/04 10:18:37;;;;;;;1.73;1.30;;;10.30;99.90;;;;;;5031038;28;20195;-52
2023/01/04 10:21:16;;;;;;;2.90;1.63;;;10.30;99.90;;;;;;5028419;28;20218;-44
2023/01/04 10:23:55;;;;;;;1.57;1.43;;;10.30;99.90;;;;;;5012945;28;20290;-43
2023/01/04 10:26:26;;;;;;;4.20;2.33;;;10.30;99.90;;;;;;5038773;28;20239;-50
2023/01/04 10:29:23;;;;;;;3.73;2.10;;;10.40;99.90;;;;;;5027412;28;20224;-45
2023/01/04 10:31:57;;;;;;;4.90;2.13;;;10.40;99.90;;;;;;5023552;28;20188;-45
2023/01/04 10:34:26;;;;;;;2.83;1.50;;;10.40;99.90;;;;;;5024514;28;20206;-46
2023/01/04 10:36:58;;;;;;;3.53;1.83;;;10.40;99.90;;;;;;5036171;28;20230;-47
2023/01/04 10:39:28;;;;;;;2.80;1.63;;;10.40;99.90;;;;;;5023605;28;20235;-48
2023/01/04 10:41:59;;;;;;;2.47;1.33;;;10.50;99.90;;;;;;5028336;28;20203;-45
2023/01/04 10:44:36;;;;;;;3.27;1.30;;;10.50;99.90;;;;;;5026801;28;20279;-50
2023/01/04 10:47:09;;;;;;;1.57;0.90;;;10.50;99.90;;;;;;5035681;28;20292;-45
2023/01/04 10:49:44;;;;;;;2.90;1.40;;;10.60;99.90;;;;;;5039936;28;20219;-49
2023/01/04 10:52:17;;;;;;;0.67;0.67;;;10.50;99.90;;;;;;5028896;28;20227;-43
2023/01/04 10:54:48;;;;;;;2.67;1.60;;;10.60;99.90;;;;;;5018495;28;20214;-50
2023/01/04 10:57:20;;;;;;;7.60;2.30;;;10.60;99.90;;;;;;5037599;28;20294;-44
2023/01/04 10:59:52;;;;;;;6.20;2.43;;;10.60;99.90;;;;;;5021909;28;20834;-50
2023/01/04 11:02:25;;;;;;;2.43;1.50;;;10.60;99.90;;;;;;5028770;28;20208;-42
2023/01/04 11:04:59;;;;;;;0.80;0.70;;;10.60;99.90;;;;;;5034379;28;20196;-47
2023/01/04 11:07:36;;;;;;;4.37;2.20;;;10.60;99.90;;;;;;5026219;28;20226;-46
2023/01/04 11:10:07;;;;;;;3.63;1.60;;;10.60;99.90;;;;;;5010010;28;20210;-45
2023/01/04 11:12:34;;;;;;;2.40;1.57;;;10.70;99.90;;;;;;5041078;28;20188;-48
2023/01/04 11:15:19;;;;;;;2.90;1.27;;;10.70;99.90;;;;;;5027847;28;20700;-45
2023/01/04 11:17:47;;;;;;;1.30;1.17;;;10.70;99.90;;;;;;5024593;28;20299;-48
2023/01/04 11:20:15;;;;;;;1.77;1.13;;;10.70;99.90;;;;;;5028821;28;20208;-44
2023/01/04 11:22:48;;;;;;;1.90;1.50;;;10.80;99.90;;;;;;5021307;28;20223;-45
2023/01/04 11:25:19;;;;;;;1.93;1.13;;;10.80;99.90;;;;;;5036318;28;20207;-45
2023/01/04 11:27:49;;;;;;;1.77;1.67;;;10.80;99.90;;;;;;5021877;28;20228;-52
2023/01/04 11:30:19;;;;;;;2.67;1.20;;;10.80;99.90;;;;;;5027999;28;20207;-44
2023/01/04 11:32:52;;;;;;;5.20;2.07;;;10.80;99.90;;;;;;5021028;28;20211;-50
2023/01/04 11:35:39;;;;;;;1.97;1.10;;;10.80;99.90;;;;;;5043745;28;20293;-45
2023/01/04 11:38:14;;;;;;;2.30;1.30;;;10.80;99.90;;;;;;5029297;28;20357;-42
2023/01/04 11:40:41;;;;;;;2.47;1.20;;;10.80;99.90;;;;;;5029740;28;20210;-49
2023/01/04 11:43:17;;;;;;;2.20;1.70;;;10.90;99.90;;;;;;5012787;28;20627;-43
2023/01/04 11:45:54;;;;;;;2.17;1.40;;;10.80;99.90;;;;;;5026765;28;21786;-44
2023/01/04 11:48:35;;;;;;;1.27;1.10;;;10.90;99.90;;;;;;5023864;28;22456;-46
2023/01/04 11:51:03;;;;;;;2.37;1.40;;;10.90;99.90;;;;;;5034615;28;20274;-49
2023/01/04 11:53:33;;;;;;;2.03;1.53;;;10.90;99.90;;;;;;5034340;28;20206;-48
2023/01/04 11:56:17;;;;;;;1.53;1.37;;;10.90;99.90;;;;;;5038305;28;20302;-51
2023/01/04 11:59:01;;;;;;;1.40;1.27;;;10.90;99.90;;;;;;5017877;28;20218;-47
2023/01/04 12:01:29;;;;;;;1.60;1.50;;;10.90;99.90;;;;;;5027793;28;20207;-43
2023/01/04 12:03:56;;;;;;;1.33;1.23;;;10.90;99.90;;;;;;5022230;28;20207;-49
2023/01/04 12:06:34;;;;;;;3.13;1.67;;;10.90;99.90;;;;;;5028376;28;20227;-48
2023/01/04 12:09:02;;;;;;;1.87;1.37;;;10.90;99.90;;;;;;5028698;28;20571;-51
2023/01/04 12:11:31;;;;;;;0.83;0.83;;;10.90;99.90;;;;;;5038279;28;20748;-47
2023/01/04 12:13:59;;;;;;;2.30;1.07;;;11.00;99.90;;;;;;5009844;28;20208;-49
2023/01/04 12:16:41;;;;;;;1.33;1.20;;;11.00;99.90;;;;;;5024087;28;20236;-51
2023/01/04 12:19:13;;;;;;;2.00;1.53;;;11.00;99.90;;;;;;5024099;28;20202;-47
2023/01/04 12:21:43;;;;;;;2.03;1.10;;;11.00;99.90;;;;;;5036600;28;20609;-46
2023/01/04 12:24:17;;;;;;;1.17;1.17;;;11.00;99.90;;;;;;5033725;28;20214;-45
2023/01/04 12:26:44;;;;;;;13.53;3.67;;;11.00;99.90;;;;;;5025830;28;20591;-45
2023/01/04 12:29:34;;;;;;;1.50;1.40;;;11.00;99.90;;;;;;5012886;28;20291;-51
2023/01/04 12:32:41;;;;;;;2.70;1.30;;;11.00;99.90;;;;;;5026777;28;20235;-46
2023/01/04 12:36:01;;;;;;;0.70;0.70;;;11.00;99.90;;;;;;5024428;28;20202;-47
2023/01/04 12:39:01;;;;;;;1.10;1.10;;;11.00;99.90;;;;;;5036691;28;20195;-46
2023/01/04 12:42:16;;;;;;;0.80;0.80;;;11.10;99.90;;;;;;5029871;28;20204;-43
2023/01/04 12:45:20;;;;;;;1.20;1.10;;;11.10;99.90;;;;;;5016643;28;20276;-45
2023/01/04 12:51:21;;;;;;;1.30;1.13;;;11.10;99.90;;;;;;5030768;28;20195;-48
2023/01/04 12:53:56;;;;;;;1.20;1.10;;;11.20;99.90;;;;;;5024026;28;20200;-52
2023/01/04 12:56:43;;;;;;;0.90;0.90;;;11.10;99.90;;;;;;5026164;28;20218;-46
2023/01/04 12:59:13;;;;;;;2.17;1.97;;;11.10;99.90;;;;;;5033787;28;20822;-44
2023/01/04 13:02:09;;;;;;;1.40;1.30;;;11.20;99.90;;;;;;5013367;28;20218;-43
2023/01/04 13:04:40;;;;;;;1.93;1.60;;;11.20;99.90;;;;;;5022545;28;20207;-45
2023/01/04 13:07:14;;;;;;;1.10;1.10;;;11.20;99.90;;;;;;5034268;28;20215;-46
2023/01/04 13:09:45;;;;;;;1.50;1.40;;;11.20;99.90;;;;;;5028515;28;20709;-43
2023/01/04 13:12:31;;;;;;;0.90;0.90;;;11.20;99.90;;;;;;5019023;28;20203;-47
2023/01/04 13:15:05;;;;;;;0.90;0.90;;;11.20;99.90;;;;;;5031300;28;20191;-51
2023/01/04 13:17:39;;;;;;;1.97;1.10;;;11.20;99.90;;;;;;5013624;28;20231;-47
2023/01/04 13:20:16;;;;;;;1.50;1.40;;;11.20;99.90;;;;;;5020576;28;20278;-50
2023/01/04 13:22:49;;;;;;;2.37;1.23;;;11.30;99.90;;;;;;5027329;28;20196;-43
2023/01/04 13:25:17;;;;;;;1.30;1.20;;;11.30;99.90;;;;;;5021492;28;20343;-43
2023/01/04 13:27:55;;;;;;;1.43;1.33;;;11.30;99.90;;;;;;5030886;28;20210;-43
2023/01/04 13:30:33;;;;;;;1.30;1.20;;;11.30;99.90;;;;;;5024127;28;20222;-49
2023/01/04 13:33:10;;;;;;;1.20;1.10;;;11.30;99.90;;;;;;5009972;28;20679;-44
2023/01/04 13:35:37;;;;;;;1.47;1.37;;;11.30;99.90;;;;;;5022292;28;20194;-45
2023/01/04 13:38:12;;;;;;;1.83;1.03;;;11.30;99.90;;;;;;5034267;28;20935;-46
2023/01/04 13:40:44;;;;;;;2.80;1.60;;;11.30;99.90;;;;;;5024389;28;20348;-45
2023/01/04 13:43:45;;;;;;;1.50;0.77;;;11.40;99.90;;;;;;5019489;28;20763;-53
2023/01/04 13:46:18;;;;;;;2.53;1.10;;;11.40;99.90;;;;;;5025426;28;20309;-44
2023/01/04 13:48:50;;;;;;;2.60;1.30;;;11.40;99.90;;;;;;5013099;28;20758;-48
2023/01/04 13:51:24;;;;;;;2.53;0.93;;;11.40;99.90;;;;;;5027012;28;20223;-47
2023/01/04 13:53:53;;;;;;;3.70;1.57;;;11.40;99.90;;;;;;5030080;28;20670;-47
2023/01/04 13:56:22;;;;;;;3.03;1.23;;;11.40;99.90;;;;;;5021367;28;20223;-44
2023/01/04 13:58:49;;;;;;;5.03;1.67;;;11.40;99.90;;;;;;5025371;28;20196;-47
2023/01/04 14:01:21;;;;;;;2.83;1.37;;;11.40;99.90;;;;;;5027840;28;20286;-45